| time (UTC) | temp F | wind direction | speed MPH | gust MPH | rain 1hr in | rain 24hr in | rain mn in | humidity % | barometer mb |
| 20260904051536 | 83 | 158 | 7.0 | 12.0 | 0.00 | 0.02 | 0.00 | 88 | 1012.0 |
| 20260904050101 | 83 | 145 | 6.0 | 12.0 | 0.00 | 0.02 | 0.00 | 88 | 1012.0 |
| 20260904044536 | 83 | 148 | 7.0 | 12.0 | 0.00 | 0.02 | 0.02 | 87 | 1012.1 |
| 20260904043009 | 83 | 149 | 6.0 | 11.0 | 0.00 | 0.02 | 0.02 | 86 | 1012.1 |
| 20260904041555 | 83 | 115 | 4.0 | 8.0 | 0.00 | 0.02 | 0.02 | 86 | 1012.2 |
| 20260904040035 | 83 | 157 | 3.0 | 10.0 | 0.00 | 0.02 | 0.02 | 86 | 1012.1 |
| 20260904034507 | 83 | 132 | 6.0 | 14.0 | 0.00 | 0.02 | 0.02 | 87 | 1012.1 |
| 20260904033046 | 83 | 132 | 6.0 | 11.0 | 0.00 | 0.02 | 0.02 | 87 | 1012.2 |
| 20260904031523 | 83 | 153 | 3.0 | 10.0 | 0.00 | 0.02 | 0.02 | 87 | 1012.2 |
| 20260904030108 | 83 | 141 | 3.0 | 7.0 | 0.00 | 0.02 | 0.02 | 86 | 1012.1 |
| 20260904024538 | 83 | 148 | 3.0 | 10.0 | 0.00 | 0.02 | 0.02 | 86 | 1012.0 |
| 20260904023008 | 83 | 158 | 3.0 | 11.0 | 0.00 | 0.02 | 0.02 | 86 | 1011.9 |
| 20260904021551 | 83 | 107 | 3.0 | 9.0 | 0.00 | 0.02 | 0.02 | 86 | 1011.8 |
| 20260904020022 | 83 | 134 | 2.0 | 7.0 | 0.00 | 0.02 | 0.02 | 86 | 1011.7 |
| 20260904014609 | 83 | 97 | 3.0 | 6.0 | 0.00 | 0.02 | 0.02 | 86 | 1011.5 |
| 20260904013037 | 83 | 156 | 1.0 | 5.0 | 0.00 | 0.02 | 0.02 | 86 | 1011.4 |
| 20260904011511 | 83 | 134 | 2.0 | 6.0 | 0.00 | 0.02 | 0.02 | 85 | 1011.3 |
| 20260904010113 | 83 | 126 | 2.0 | 6.0 | 0.00 | 0.02 | 0.02 | 84 | 1011.2 |
| 20260904004530 | 83 | 104 | 2.0 | 7.0 | 0.00 | 0.02 | 0.02 | 83 | 1011.1 |
| 20260904003002 | 83 | 103 | 2.0 | 7.0 | 0.00 | 0.02 | 0.02 | 83 | 1011.2 |
| 20260904001547 | 83 | 71 | 1.0 | 4.0 | 0.00 | 0.02 | 0.02 | 82 | 1011.3 |
| 20260904000023 | 83 | 51 | 0.0 | 0.0 | 0.00 | 0.02 | 0.02 | 83 | 1011.5 |
| 20260903234556 | 83 | 51 | 0.0 | 0.0 | 0.00 | 0.02 | 0.02 | 83 | 1011.5 |
| 20260903233029 | 83 | 51 | 0.0 | 3.0 | 0.00 | 0.02 | 0.02 | 82 | 1011.5 |
| 20260903231611 | 83 | 51 | 1.0 | 3.0 | 0.00 | 0.02 | 0.02 | 82 | 1011.4 |
| 20260903230038 | 83 | 51 | 1.0 | 4.0 | 0.00 | 0.02 | 0.02 | 82 | 1011.4 |
| 20260903224514 | 83 | 86 | 3.0 | 5.0 | 0.00 | 0.02 | 0.02 | 80 | 1011.3 |
| 20260903223055 | 83 | 102 | 2.0 | 4.0 | 0.00 | 0.02 | 0.02 | 79 | 1011.5 |
| 20260903221529 | 82 | 112 | 1.0 | 3.0 | 0.00 | 0.02 | 0.02 | 79 | 1011.7 |
| 20260903220003 | 82 | 112 | 0.0 | 5.0 | 0.00 | 0.02 | 0.02 | 79 | 1011.7 |
| 20260903214540 | 82 | 121 | 1.0 | 6.0 | 0.00 | 0.02 | 0.02 | 80 | 1012.2 |
| 20260903213016 | 82 | 160 | 4.0 | 8.0 | 0.00 | 0.02 | 0.02 | 79 | 1012.6 |
| 20260903211549 | 82 | 140 | 3.0 | 11.0 | 0.00 | 0.02 | 0.02 | 79 | 1012.6 |
| 20260903210021 | 84 | 44 | 2.0 | 8.0 | 0.00 | 0.02 | 0.02 | 80 | 1012.7 |
| 20260903204618 | 83 | 359 | 4.0 | 9.0 | 0.00 | 0.02 | 0.02 | 77 | 1012.7 |
| 20260903203036 | 83 | 65 | 4.0 | 12.0 | 0.00 | 0.02 | 0.02 | 78 | 1012.9 |
| 20260903201612 | 84 | 333 | 2.0 | 12.0 | 0.00 | 0.02 | 0.02 | 79 | 1012.3 |
| 20260903200049 | 84 | 1 | 6.0 | 13.0 | 0.00 | 0.02 | 0.02 | 79 | 1012.4 |
| 20260903194508 | 85 | 336 | 3.0 | 9.0 | 0.00 | 0.02 | 0.02 | 79 | 1012.5 |
| 20260903193054 | 84 | 331 | 5.0 | 10.0 | 0.00 | 0.02 | 0.02 | 79 | 1012.6 |
| 20260903191527 | 84 | 328 | 3.0 | 10.0 | 0.00 | 0.02 | 0.02 | 79 | 1012.7 |
| 20260903190109 | 84 | 333 | 3.0 | 8.0 | 0.00 | 0.02 | 0.02 | 79 | 1012.6 |
| 20260903184534 | 84 | 289 | 3.0 | 9.0 | 0.00 | 0.02 | 0.02 | 76 | 1012.9 |
| 20260903183003 | 85 | 301 | 6.0 | 12.0 | 0.00 | 0.02 | 0.02 | 72 | 1013.1 |
| 20260903181544 | 87 | 297 | 2.0 | 8.0 | 0.00 | 0.02 | 0.02 | 75 | 1013.0 |
| 20260903180015 | 89 | 283 | 2.0 | 6.0 | 0.00 | 0.02 | 0.02 | 75 | 1013.3 |
| 20260903174553 | 89 | 114 | 3.0 | 6.0 | 0.00 | 0.02 | 0.02 | 76 | 1013.5 |
| 20260903173022 | 89 | 68 | 3.0 | 9.0 | 0.00 | 0.02 | 0.02 | 75 | 1013.5 |
| 20260903171601 | 89 | 157 | 4.0 | 9.0 | 0.00 | 0.02 | 0.02 | 77 | 1013.2 |
| 20260903170034 | 87 | 154 | 4.0 | 8.0 | 0.00 | 0.02 | 0.02 | 79 | 1013.4 |
| 20260903164504 | 87 | 125 | 2.0 | 7.0 | 0.00 | 0.02 | 0.02 | 81 | 1013.7 |
| 20260903163041 | 86 | 103 | 2.0 | 7.0 | 0.00 | 0.02 | 0.02 | 84 | 1013.8 |
| 20260903161515 | 85 | 145 | 2.0 | 5.0 | 0.00 | 0.02 | 0.02 | 87 | 1013.7 |
| 20260903160109 | 84 | 120 | 0.0 | 4.0 | 0.01 | 0.02 | 0.02 | 89 | 1013.7 |
| 20260903154536 | 83 | 150 | 0.0 | 2.0 | 0.01 | 0.02 | 0.02 | 90 | 1013.4 |
| 20260903153010 | 83 | 85 | 0.0 | 0.0 | 0.02 | 0.02 | 0.02 | 91 | 1013.5 |
| 20260903151600 | 82 | 85 | 0.0 | 1.0 | 0.02 | 0.02 | 0.02 | 91 | 1013.5 |
| 20260903150031 | 83 | 89 | 0.0 | 2.0 | 0.01 | 0.01 | 0.01 | 90 | 1013.5 |
| 20260903144607 | 83 | 89 | 0.0 | 3.0 | 0.01 | 0.01 | 0.01 | 90 | 1013.7 |
| 20260903143036 | 83 | 119 | 2.0 | 5.0 | 0.00 | 0.00 | 0.00 | 89 | 1013.9 |
| 20260903141512 | 83 | 122 | 4.0 | 9.0 | 0.00 | 0.00 | 0.00 | 86 | 1013.9 |
| 20260903140047 | 84 | 160 | 2.0 | 8.0 | 0.00 | 0.00 | 0.00 | 85 | 1013.9 |
| 20260903134513 | 84 | 191 | 2.0 | 8.0 | 0.00 | 0.00 | 0.00 | 85 | 1013.7 |
| 20260903133101 | 83 | 193 | 3.0 | 9.0 | 0.00 | 0.00 | 0.00 | 87 | 1013.9 |
| 20260903131525 | 83 | 149 | 0.0 | 5.0 | 0.00 | 0.00 | 0.00 | 87 | 1013.9 |
| 20260903130105 | 83 | 208 | 3.0 | 6.0 | 0.00 | 0.00 | 0.00 | 87 | 1013.4 |
| 20260903124543 | 83 | 237 | 4.0 | 6.0 | 0.00 | 0.00 | 0.00 | 87 | 1013.3 |
| 20260903123005 | 83 | 177 | 3.0 | 8.0 | 0.00 | 0.00 | 0.00 | 87 | 1013.0 |
| 20260903121548 | 83 | 143 | 4.0 | 7.0 | 0.00 | 0.00 | 0.00 | 87 | 1012.6 |
| 20260903120014 | 83 | 187 | 2.0 | 6.0 | 0.00 | 0.00 | 0.00 | 86 | 1012.8 |
| 20260903114558 | 83 | 190 | 2.0 | 8.0 | 0.00 | 0.00 | 0.00 | 86 | 1012.7 |
| 20260903113035 | 83 | 207 | 2.0 | 8.0 | 0.00 | 0.00 | 0.00 | 86 | 1012.6 |
| 20260903111503 | 83 | 185 | 4.0 | 11.0 | 0.00 | 0.00 | 0.00 | 85 | 1012.7 |
| 20260903110047 | 84 | 215 | 3.0 | 11.0 | 0.00 | 0.00 | 0.00 | 85 | 1012.7 |
| 20260903104514 | 83 | 214 | 3.0 | 9.0 | 0.00 | 0.00 | 0.00 | 86 | 1012.6 |
| 20260903103056 | 83 | 190 | 4.0 | 9.0 | 0.00 | 0.00 | 0.00 | 87 | 1012.5 |
| 20260903101531 | 83 | 186 | 3.0 | 9.0 | 0.00 | 0.00 | 0.00 | 87 | 1012.4 |
| 20260903100108 | 83 | 169 | 5.0 | 12.0 | 0.00 | 0.00 | 0.00 | 87 | 1012.2 |
| 20260903094538 | 83 | 155 | 5.0 | 10.0 | 0.00 | 0.00 | 0.00 | 87 | 1012.2 |
| 20260903093005 | 84 | 197 | 4.0 | 12.0 | 0.00 | 0.00 | 0.00 | 86 | 1012.3 |
| 20260903091551 | 84 | 187 | 4.0 | 12.0 | 0.00 | 0.00 | 0.00 | 86 | 1012.3 |
| 20260903090029 | 84 | 164 | 7.0 | 13.0 | 0.00 | 0.00 | 0.00 | 85 | 1012.4 |
| 20260903084600 | 84 | 171 | 3.0 | 14.0 | 0.00 | 0.00 | 0.00 | 86 | 1012.3 |
| 20260903083030 | 84 | 162 | 5.0 | 10.0 | 0.00 | 0.00 | 0.00 | 86 | 1012.2 |
| 20260903081505 | 83 | 195 | 5.0 | 9.0 | 0.00 | 0.00 | 0.00 | 86 | 1012.2 |
| 20260903080044 | 83 | 181 | 5.0 | 11.0 | 0.00 | 0.00 | 0.00 | 87 | 1012.1 |
| 20260903074515 | 83 | 193 | 5.0 | 12.0 | 0.00 | 0.00 | 0.00 | 86 | 1012.2 |
| 20260903073107 | 84 | 200 | 3.0 | 13.0 | 0.00 | 0.00 | 0.00 | 86 | 1012.2 |
| 20260903071535 | 84 | 209 | 4.0 | 9.0 | 0.00 | 0.00 | 0.00 | 86 | 1012.2 |
| 20260903070001 | 84 | 151 | 4.0 | 10.0 | 0.00 | 0.00 | 0.00 | 86 | 1012.4 |
| 20260903064547 | 84 | 239 | 4.0 | 8.0 | 0.00 | 0.00 | 0.00 | 85 | 1012.5 |
| 20260903063021 | 84 | 170 | 1.0 | 7.0 | 0.00 | 0.00 | 0.00 | 85 | 1012.8 |
| 20260903061607 | 84 | 205 | 3.0 | 9.0 | 0.00 | 0.00 | 0.00 | 85 | 1013.0 |
| 20260903060035 | 84 | 185 | 2.0 | 9.0 | 0.00 | 0.00 | 0.00 | 85 | 1013.2 |
| 20260903054506 | 84 | 179 | 2.0 | 7.0 | 0.00 | 0.00 | 0.00 | 85 | 1013.4 |
| 20260903053051 | 84 | 173 | 4.0 | 8.0 | 0.00 | 0.00 | 0.00 | 85 | 1013.4 |